UAL1422 KDEN-KSTL
Flight info
| Callsign | UAL1422 |
|---|---|
| Flight time | 1h 30m |
| Altitude | 37000 |
| Route | EXTAN7 SHAYK SLN ANX KAYLA3 |
| Aircraft | A320/M-VGDW/C |
Departure
| Time | 2026-05-04 15:47 |
|---|---|
| Airport | Denver International Airport (KDEN) |
Arrival
| Time | 2026-05-04 17:17 |
|---|---|
| Airport | St. Louis Lambert International Airport (KSTL) |
| Time | Latitude | Longitude | Altitude | Speed | Heading |
|---|---|---|---|---|---|
| 2026-05-04 15:22 | 39.85938 | -104.67754 | 5380 ft | 0 kts | 180° |
| 2026-05-04 15:34 | 39.85968 | -104.67754 | 5376 ft | 4 kts | 180° |
| 2026-05-04 15:34 | 39.85996 | -104.67754 | 5376 ft | 4 kts | 179° |
| 2026-05-04 15:34 | 39.86022 | -104.67754 | 5379 ft | 0 kts | 179° |
| 2026-05-04 15:38 | 39.86021 | -104.67754 | 5379 ft | 0 kts | 179° |
| 2026-05-04 15:38 | 39.86014 | -104.67750 | 5380 ft | 1 kts | 144° |
| 2026-05-04 15:38 | 39.86013 | -104.67739 | 5380 ft | 2 kts | 96° |
| 2026-05-04 15:38 | 39.86031 | -104.67715 | 5378 ft | 6 kts | 20° |
| 2026-05-04 15:39 | 39.86074 | -104.67696 | 5376 ft | 8 kts | 19° |
| 2026-05-04 15:39 | 39.86124 | -104.67661 | 5376 ft | 9 kts | 53° |
| 2026-05-04 15:39 | 39.86132 | -104.67491 | 5375 ft | 10 kts | 90° |
| 2026-05-04 15:40 | 39.86132 | -104.67398 | 5374 ft | 10 kts | 90° |
| 2026-05-04 15:40 | 39.86131 | -104.67301 | 5375 ft | 11 kts | 91° |
| 2026-05-04 15:40 | 39.86130 | -104.67234 | 5377 ft | 11 kts | 90° |
| 2026-05-04 15:40 | 39.86130 | -104.67096 | 5374 ft | 12 kts | 90° |
| 2026-05-04 15:41 | 39.86129 | -104.66985 | 5374 ft | 13 kts | 90° |
| 2026-05-04 15:41 | 39.86128 | -104.66862 | 5377 ft | 14 kts | 90° |
| 2026-05-04 15:41 | 39.86127 | -104.66725 | 5377 ft | 16 kts | 90° |
| 2026-05-04 15:41 | 39.86121 | -104.66581 | 5374 ft | 16 kts | 99° |
| 2026-05-04 15:42 | 39.86106 | -104.66433 | 5379 ft | 16 kts | 90° |
| 2026-05-04 15:42 | 39.86105 | -104.66341 | 5381 ft | 13 kts | 90° |
| 2026-05-04 15:42 | 39.86110 | -104.66259 | 5384 ft | 7 kts | 68° |
| 2026-05-04 15:42 | 39.86152 | -104.66229 | 5379 ft | 9 kts | 8° |
| 2026-05-04 15:43 | 39.86228 | -104.66227 | 5382 ft | 12 kts | 1° |
| 2026-05-04 15:43 | 39.86321 | -104.66226 | 5382 ft | 15 kts | 0° |
| 2026-05-04 15:43 | 39.86430 | -104.66225 | 5382 ft | 17 kts | 0° |
| 2026-05-04 15:43 | 39.86558 | -104.66224 | 5380 ft | 20 kts | 0° |
| 2026-05-04 15:44 | 39.86706 | -104.66222 | 5374 ft | 23 kts | 1° |
| 2026-05-04 15:44 | 39.86883 | -104.66220 | 5370 ft | 27 kts | 0° |
| 2026-05-04 15:44 | 39.87077 | -104.66218 | 5367 ft | 29 kts | 0° |
| 2026-05-04 15:44 | 39.87278 | -104.66215 | 5364 ft | 27 kts | 1° |
| 2026-05-04 15:45 | 39.87451 | -104.66213 | 5361 ft | 23 kts | 0° |
| 2026-05-04 15:45 | 39.87610 | -104.66212 | 5362 ft | 22 kts | 360° |
| 2026-05-04 15:45 | 39.87734 | -104.66206 | 5361 ft | 9 kts | 15° |
| 2026-05-04 15:45 | 39.87755 | -104.66144 | 5360 ft | 10 kts | 91° |
| 2026-05-04 15:46 | 39.87753 | -104.65877 | 5356 ft | 63 kts | 90° |
| 2026-05-04 15:46 | 39.87746 | -104.65020 | 5348 ft | 123 kts | 90° |
| 2026-05-04 15:46 | 39.87737 | -104.63670 | 5331 ft | 173 kts | 90° |
| 2026-05-04 15:46 | 39.87736 | -104.61945 | 5556 ft | 194 kts | 90° |
| 2026-05-04 15:47 | 39.87716 | -104.60201 | 6312 ft | 193 kts | 98° |
| 2026-05-04 15:47 | 39.87361 | -104.58532 | 6981 ft | 192 kts | 115° |
| 2026-05-04 15:47 | 39.86820 | -104.56904 | 7346 ft | 203 kts | 115° |
| 2026-05-04 15:47 | 39.86226 | -104.55130 | 7493 ft | 225 kts | 115° |
| 2026-05-04 15:48 | 39.85575 | -104.53180 | 7636 ft | 246 kts | 115° |
| 2026-05-04 15:48 | 39.84861 | -104.51028 | 7818 ft | 272 kts | 114° |
| 2026-05-04 15:48 | 39.83270 | -104.46212 | 8678 ft | 301 kts | 113° |
| 2026-05-04 15:49 | 39.82443 | -104.43697 | 9353 ft | 305 kts | 113° |
| 2026-05-04 15:49 | 39.81601 | -104.41130 | 9879 ft | 312 kts | 112° |
| 2026-05-04 15:49 | 39.81028 | -104.38464 | 10032 ft | 311 kts | 92° |
| 2026-05-04 15:49 | 39.80965 | -104.35551 | 10365 ft | 328 kts | 89° |
| 2026-05-04 15:50 | 39.80869 | -104.32540 | 10522 ft | 348 kts | 93° |
| 2026-05-04 15:50 | 39.80609 | -104.29363 | 11011 ft | 357 kts | 96° |
| 2026-05-04 15:50 | 39.80253 | -104.26146 | 11621 ft | 362 kts | 97° |
| 2026-05-04 15:50 | 39.79848 | -104.22895 | 12245 ft | 366 kts | 98° |
| 2026-05-04 15:51 | 39.79429 | -104.19607 | 12869 ft | 370 kts | 98° |
| 2026-05-04 15:51 | 39.79017 | -104.16290 | 13509 ft | 373 kts | 98° |
| 2026-05-04 15:51 | 39.78617 | -104.12947 | 14115 ft | 376 kts | 97° |
| 2026-05-04 15:51 | 39.78239 | -104.09567 | 14700 ft | 379 kts | 97° |
| 2026-05-04 15:52 | 39.77876 | -104.06162 | 15301 ft | 382 kts | 97° |
| 2026-05-04 15:52 | 39.77519 | -104.02724 | 15878 ft | 385 kts | 97° |
| 2026-05-04 15:52 | 39.77159 | -103.99265 | 16435 ft | 388 kts | 97° |
| 2026-05-04 15:52 | 39.76793 | -103.95785 | 17017 ft | 390 kts | 97° |
| 2026-05-04 15:53 | 39.76418 | -103.92285 | 17587 ft | 392 kts | 98° |
| 2026-05-04 15:53 | 39.76018 | -103.88814 | 18125 ft | 395 kts | 99° |
| 2026-05-04 15:53 | 39.75576 | -103.85273 | 18659 ft | 399 kts | 99° |
| 2026-05-04 15:53 | 39.75116 | -103.81704 | 19198 ft | 401 kts | 99° |
| 2026-05-04 15:54 | 39.74649 | -103.78112 | 19675 ft | 405 kts | 99° |
| 2026-05-04 15:54 | 39.74190 | -103.74469 | 20151 ft | 410 kts | 98° |
| 2026-05-04 15:54 | 39.73820 | -103.70775 | 20615 ft | 415 kts | 96° |
| 2026-05-04 15:54 | 39.73523 | -103.67035 | 21086 ft | 418 kts | 95° |
| 2026-05-04 15:55 | 39.73263 | -103.63255 | 21548 ft | 422 kts | 95° |
| 2026-05-04 15:55 | 39.73009 | -103.59440 | 22000 ft | 426 kts | 95° |
| 2026-05-04 15:55 | 39.72740 | -103.55594 | 22440 ft | 430 kts | 95° |
| 2026-05-04 15:55 | 39.72451 | -103.51698 | 22874 ft | 435 kts | 95° |
| 2026-05-04 15:56 | 39.72150 | -103.47779 | 23308 ft | 437 kts | 95° |
| 2026-05-04 15:56 | 39.71833 | -103.43837 | 23715 ft | 440 kts | 96° |
| 2026-05-04 15:56 | 39.71504 | -103.39874 | 24085 ft | 444 kts | 96° |
| 2026-05-04 15:56 | 39.71172 | -103.35920 | 24471 ft | 448 kts | 96° |
| 2026-05-04 15:57 | 39.70834 | -103.31877 | 24847 ft | 451 kts | 96° |
| 2026-05-04 15:57 | 39.70499 | -103.27816 | 25223 ft | 454 kts | 96° |
| 2026-05-04 15:57 | 39.70166 | -103.23729 | 25567 ft | 457 kts | 96° |
| 2026-05-04 15:57 | 39.69832 | -103.19608 | 25912 ft | 460 kts | 96° |
| 2026-05-04 15:58 | 39.69491 | -103.15463 | 26249 ft | 463 kts | 96° |
| 2026-05-04 15:58 | 39.69144 | -103.11297 | 26565 ft | 466 kts | 96° |
| 2026-05-04 15:58 | 39.68791 | -103.07094 | 26871 ft | 469 kts | 96° |
| 2026-05-04 15:58 | 39.68437 | -103.02868 | 27189 ft | 472 kts | 96° |
| 2026-05-04 15:59 | 39.68080 | -102.98615 | 27486 ft | 475 kts | 96° |
| 2026-05-04 15:59 | 39.67720 | -102.94336 | 27788 ft | 478 kts | 96° |
| 2026-05-04 15:59 | 39.67353 | -102.90032 | 28087 ft | 481 kts | 96° |
| 2026-05-04 15:59 | 39.66983 | -102.85707 | 28388 ft | 484 kts | 96° |
| 2026-05-04 16:00 | 39.66612 | -102.81356 | 28673 ft | 487 kts | 96° |
| 2026-05-04 16:00 | 39.66236 | -102.76980 | 28946 ft | 490 kts | 96° |
| 2026-05-04 16:00 | 39.65852 | -102.72569 | 29220 ft | 492 kts | 96° |
| 2026-05-04 16:00 | 39.65464 | -102.68137 | 29495 ft | 495 kts | 96° |
| 2026-05-04 16:01 | 39.65072 | -102.63684 | 29769 ft | 498 kts | 96° |
| 2026-05-04 16:01 | 39.64680 | -102.59219 | 30050 ft | 500 kts | 96° |
| 2026-05-04 16:01 | 39.64285 | -102.54742 | 30439 ft | 499 kts | 96° |
| 2026-05-04 16:01 | 39.63895 | -102.50326 | 30814 ft | 499 kts | 96° |
| 2026-05-04 16:02 | 39.63499 | -102.45857 | 31192 ft | 498 kts | 96° |
| 2026-05-04 16:02 | 39.63101 | -102.41404 | 31561 ft | 497 kts | 96° |
| 2026-05-04 16:02 | 39.62298 | -102.32491 | 32313 ft | 496 kts | 97° |
| 2026-05-04 16:03 | 39.61895 | -102.28048 | 32689 ft | 495 kts | 97° |
| 2026-05-04 16:03 | 39.61495 | -102.23611 | 33073 ft | 494 kts | 97° |
| 2026-05-04 16:03 | 39.61096 | -102.19197 | 33450 ft | 492 kts | 97° |
| 2026-05-04 16:03 | 39.60694 | -102.14792 | 33804 ft | 492 kts | 97° |
| 2026-05-04 16:04 | 39.60287 | -102.10392 | 34161 ft | 491 kts | 97° |
| 2026-05-04 16:04 | 39.59465 | -102.01615 | 34724 ft | 491 kts | 97° |
| 2026-05-04 16:04 | 39.59065 | -101.97208 | 34940 ft | 493 kts | 96° |
| 2026-05-04 16:05 | 39.58702 | -101.92773 | 35160 ft | 494 kts | 96° |
| 2026-05-04 16:05 | 39.58362 | -101.88341 | 35368 ft | 495 kts | 95° |
| 2026-05-04 16:05 | 39.57703 | -101.79487 | 35760 ft | 498 kts | 95° |
| 2026-05-04 16:06 | 39.57362 | -101.75020 | 35941 ft | 499 kts | 95° |
| 2026-05-04 16:06 | 39.56397 | -101.63042 | 36390 ft | 504 kts | 96° |
| 2026-05-04 16:07 | 39.55892 | -101.56989 | 36599 ft | 506 kts | 96° |
| 2026-05-04 16:07 | 39.54750 | -101.43327 | 36818 ft | 514 kts | 96° |
| 2026-05-04 16:08 | 39.54312 | -101.38706 | 36826 ft | 519 kts | 98° |
| 2026-05-04 16:09 | 39.50811 | -101.15561 | 36827 ft | 527 kts | 102° |
| 2026-05-04 16:10 | 39.48009 | -100.96925 | 36821 ft | 528 kts | 101° |
| 2026-05-04 16:11 | 39.45226 | -100.78276 | 36830 ft | 527 kts | 101° |
| 2026-05-04 16:12 | 39.40942 | -100.50409 | 36831 ft | 527 kts | 101° |
| 2026-05-04 16:13 | 39.38060 | -100.31847 | 36821 ft | 526 kts | 101° |
| 2026-05-04 16:14 | 39.35158 | -100.13407 | 36815 ft | 525 kts | 101° |
| 2026-05-04 16:16 | 39.31495 | -99.90325 | 36809 ft | 524 kts | 101° |
| 2026-05-04 16:17 | 39.27770 | -99.67312 | 36804 ft | 524 kts | 101° |
| 2026-05-04 16:18 | 39.24783 | -99.48942 | 36799 ft | 525 kts | 101° |
| 2026-05-04 16:19 | 39.20973 | -99.25873 | 36795 ft | 527 kts | 101° |
| 2026-05-04 16:20 | 39.17128 | -99.02840 | 36787 ft | 528 kts | 101° |
| 2026-05-04 16:22 | 39.13216 | -98.79723 | 36790 ft | 528 kts | 102° |
| 2026-05-04 16:23 | 39.08453 | -98.52057 | 36790 ft | 528 kts | 102° |
| 2026-05-04 16:25 | 39.03635 | -98.24380 | 36797 ft | 527 kts | 102° |
| 2026-05-04 16:26 | 38.97929 | -97.92168 | 36799 ft | 527 kts | 102° |
| 2026-05-04 16:28 | 38.93813 | -97.69371 | 36789 ft | 525 kts | 102° |
| 2026-05-04 16:28 | 38.92922 | -97.55548 | 36786 ft | 516 kts | 81° |
| 2026-05-04 16:29 | 38.94075 | -97.37212 | 36781 ft | 516 kts | 82° |
| 2026-05-04 16:31 | 38.95477 | -97.14251 | 36778 ft | 514 kts | 82° |
| 2026-05-04 16:32 | 38.97071 | -96.86838 | 36762 ft | 512 kts | 82° |
| 2026-05-04 16:33 | 38.98101 | -96.68620 | 36756 ft | 510 kts | 82° |
| 2026-05-04 16:34 | 38.98858 | -96.54979 | 36758 ft | 510 kts | 83° |
| 2026-05-04 16:35 | 39.00310 | -96.27759 | 36761 ft | 508 kts | 83° |
| 2026-05-04 16:36 | 39.01007 | -96.14241 | 36761 ft | 507 kts | 83° |
| 2026-05-04 16:37 | 39.01686 | -96.00700 | 36759 ft | 505 kts | 83° |
| 2026-05-04 16:38 | 39.02577 | -95.82692 | 36767 ft | 504 kts | 84° |
| 2026-05-04 16:39 | 39.03648 | -95.60217 | 36756 ft | 502 kts | 84° |
| 2026-05-04 16:40 | 39.04461 | -95.42348 | 36753 ft | 502 kts | 84° |
| 2026-05-04 16:41 | 39.05377 | -95.21462 | 36760 ft | 501 kts | 84° |
| 2026-05-04 16:43 | 39.06184 | -95.02380 | 36762 ft | 501 kts | 84° |
| 2026-05-04 16:43 | 39.06675 | -94.90465 | 36768 ft | 500 kts | 84° |
| 2026-05-04 16:45 | 39.07721 | -94.63649 | 36782 ft | 500 kts | 84° |
| 2026-05-04 16:46 | 39.08555 | -94.41376 | 36790 ft | 499 kts | 85° |
| 2026-05-04 16:47 | 39.09181 | -94.23531 | 36788 ft | 499 kts | 85° |
| 2026-05-04 16:48 | 39.09111 | -94.10153 | 36772 ft | 501 kts | 99° |
| 2026-05-04 16:48 | 39.08422 | -94.05764 | 36772 ft | 501 kts | 101° |
| 2026-05-04 16:49 | 39.05601 | -93.88213 | 36778 ft | 500 kts | 101° |
| 2026-05-04 16:50 | 39.02797 | -93.70733 | 36784 ft | 500 kts | 101° |
| 2026-05-04 16:51 | 39.00661 | -93.57612 | 36786 ft | 500 kts | 101° |
| 2026-05-04 16:52 | 38.97784 | -93.40125 | 36794 ft | 499 kts | 101° |
| 2026-05-04 16:53 | 38.95626 | -93.27097 | 36791 ft | 499 kts | 101° |
| 2026-05-04 16:54 | 38.92721 | -93.09649 | 36784 ft | 499 kts | 101° |
| 2026-05-04 16:55 | 38.88308 | -92.83564 | 36791 ft | 500 kts | 102° |
| 2026-05-04 16:56 | 38.84569 | -92.61740 | 34073 ft | 508 kts | 102° |
| 2026-05-04 16:57 | 38.83805 | -92.57306 | 33205 ft | 511 kts | 102° |
| 2026-05-04 16:57 | 38.82265 | -92.48403 | 31213 ft | 518 kts | 102° |
| 2026-05-04 16:58 | 38.79901 | -92.34835 | 28289 ft | 517 kts | 103° |
| 2026-05-04 16:58 | 38.79122 | -92.30372 | 27602 ft | 511 kts | 103° |
| 2026-05-04 16:59 | 38.77574 | -92.21554 | 26134 ft | 502 kts | 103° |
| 2026-05-04 17:00 | 38.74543 | -92.04424 | 23285 ft | 484 kts | 103° |
| 2026-05-04 17:00 | 38.72376 | -91.92252 | 22460 ft | 445 kts | 103° |
| 2026-05-04 17:01 | 38.71038 | -91.84656 | 21858 ft | 431 kts | 103° |
| 2026-05-04 17:01 | 38.69724 | -91.77225 | 20911 ft | 424 kts | 103° |
| 2026-05-04 17:02 | 38.69219 | -91.69799 | 19672 ft | 415 kts | 89° |
| 2026-05-04 17:02 | 38.69264 | -91.62554 | 18001 ft | 405 kts | 90° |
| 2026-05-04 17:03 | 38.69280 | -91.58961 | 17306 ft | 402 kts | 90° |
| 2026-05-04 17:03 | 38.69294 | -91.55399 | 16691 ft | 396 kts | 90° |
| 2026-05-04 17:03 | 38.69326 | -91.48399 | 15482 ft | 392 kts | 90° |
| 2026-05-04 17:04 | 38.69344 | -91.41488 | 14495 ft | 385 kts | 91° |
| 2026-05-04 17:04 | 38.69362 | -91.34680 | 13345 ft | 375 kts | 91° |
| 2026-05-04 17:05 | 38.69388 | -91.28000 | 12403 ft | 372 kts | 91° |
| 2026-05-04 17:05 | 38.69410 | -91.21551 | 11177 ft | 362 kts | 91° |
| 2026-05-04 17:06 | 38.69500 | -91.15170 | 10586 ft | 348 kts | 89° |
| 2026-05-04 17:06 | 38.69632 | -91.12172 | 10415 ft | 332 kts | 83° |
| 2026-05-04 17:07 | 38.71106 | -91.06773 | 9449 ft | 317 kts | 58° |
| 2026-05-04 17:07 | 38.71855 | -91.05161 | 9128 ft | 316 kts | 59° |
| 2026-05-04 17:07 | 38.73334 | -91.01919 | 8982 ft | 316 kts | 59° |
| 2026-05-04 17:07 | 38.74428 | -90.99471 | 8998 ft | 316 kts | 60° |
| 2026-05-04 17:08 | 38.75511 | -90.97059 | 8804 ft | 307 kts | 59° |
| 2026-05-04 17:08 | 38.77612 | -90.92329 | 8018 ft | 302 kts | 59° |
| 2026-05-04 17:08 | 38.78658 | -90.90016 | 7584 ft | 299 kts | 59° |
| 2026-05-04 17:09 | 38.79708 | -90.87721 | 7102 ft | 297 kts | 58° |
| 2026-05-04 17:09 | 38.80767 | -90.85446 | 6849 ft | 298 kts | 58° |
| 2026-05-04 17:09 | 38.81830 | -90.83156 | 6540 ft | 298 kts | 58° |
| 2026-05-04 17:10 | 38.83910 | -90.78626 | 6200 ft | 287 kts | 58° |
| 2026-05-04 17:10 | 38.86745 | -90.72442 | 5348 ft | 263 kts | 58° |
| 2026-05-04 17:11 | 38.87659 | -90.70439 | 4950 ft | 258 kts | 60° |
| 2026-05-04 17:11 | 38.88223 | -90.68286 | 4614 ft | 252 kts | 83° |
| 2026-05-04 17:11 | 38.88287 | -90.63876 | 4063 ft | 242 kts | 110° |
| 2026-05-04 17:12 | 38.87603 | -90.61942 | 3966 ft | 234 kts | 127° |
| 2026-05-04 17:12 | 38.85860 | -90.58383 | 3978 ft | 236 kts | 128° |
| 2026-05-04 17:13 | 38.83273 | -90.53103 | 3489 ft | 229 kts | 128° |
| 2026-05-04 17:14 | 38.80800 | -90.48046 | 2622 ft | 207 kts | 128° |
| 2026-05-04 17:14 | 38.80071 | -90.46567 | 2344 ft | 187 kts | 128° |
| 2026-05-04 17:14 | 38.78842 | -90.44066 | 1899 ft | 151 kts | 128° |
| 2026-05-04 17:15 | 38.78282 | -90.42933 | 1704 ft | 146 kts | 127° |
| 2026-05-04 17:15 | 38.77225 | -90.40788 | 1326 ft | 141 kts | 127° |
| 2026-05-04 17:16 | 38.76178 | -90.38664 | 947 ft | 141 kts | 126° |
| 2026-05-04 17:16 | 38.74678 | -90.35628 | 572 ft | 83 kts | 122° |
| 2026-05-04 17:17 | 38.74534 | -90.35344 | 578 ft | 9 kts | 144° |
| 2026-05-04 17:17 | 38.74406 | -90.35423 | 579 ft | 8 kts | 247° |
| 2026-05-04 17:18 | 38.74427 | -90.35501 | 581 ft | 10 kts | 301° |
| 2026-05-04 17:18 | 38.74418 | -90.35640 | 581 ft | 8 kts | 185° |
| 2026-05-04 17:19 | 38.74319 | -90.35720 | 582 ft | 14 kts | 224° |
| 2026-05-04 17:19 | 38.74197 | -90.35892 | 572 ft | 8 kts | 255° |
| 2026-05-04 17:20 | 38.74284 | -90.36096 | 570 ft | 17 kts | 302° |
| 2026-05-04 17:20 | 38.74433 | -90.36395 | 569 ft | 22 kts | 302° |
| 2026-05-04 17:20 | 38.74494 | -90.36519 | 557 ft | 13 kts | 302° |
| 2026-05-04 17:21 | 38.74536 | -90.36621 | 563 ft | 3 kts | 274° |
| 2026-05-04 17:21 | 38.74523 | -90.36670 | 555 ft | 2 kts | 253° |
| 2026-05-04 17:22 | 38.74520 | -90.36682 | 555 ft | 1 kts | 252° |
| 2026-05-04 17:22 | 38.74519 | -90.36687 | 555 ft | 1 kts | 252° |
| 2026-05-04 17:23 | 38.74512 | -90.36715 | 555 ft | 0 kts | 252° |